Scotlandville, Louisiana
Current Conditions -  °F | °C
As of 2:53 PM on Saturday 22 Nov 2014 (Local Time) from KBTR Reporting Station
Broken Clouds Broken Clouds  
Wind Chill: 67°   Ceiling: 4500
Heat Index: 67°   Visibility: 10mi
Dew Point: 58°   Wind: 16mph
Humidity: 73%   Direction: 90°E
Pressure: 30.05"   Gusts: NA
Location:  30.5305°N, 91.1163°W
Report Text: KBTR 222053Z 09014KT 10SM FEW020 BKN045 19/14 A3005 RMK AO2 SLP176 T01940144 56022
Loading
Personal Weather Stations






























Interactive Weather Map New forecast layout! Learn more

10-Day Weather Forecast

Advertisements
Track Severe Weather on mobile